Time;durP1;ratioP1;P1;durP2;ratioP2;P2;SDS_P1;SDS_P2;PMS_P1;PMS_P2;Temp;Humidity;BMP_temperature;BMP_pressure;BME280_temperature;BME280_humidity;BME280_pressure;Samples;Min_cycle;Max_cycle;Signal;HPM_P1;HPM_P2
2022/05/26 00:01:21;;;;;;;9.80;4.63;;;13.50;1.00;;;;;;4970656;28;20479;-55
2022/05/26 00:03:47;;;;;;;9.23;5.70;;;13.60;1.00;;;;;;4971965;28;20777;-53
2022/05/26 00:06:15;;;;;;;8.90;5.33;;;13.60;1.00;;;;;;4971889;28;20412;-52
2022/05/26 00:08:41;;;;;;;8.40;5.40;;;13.60;1.00;;;;;;4971816;28;20981;-54
2022/05/26 00:11:09;;;;;;;9.57;5.33;;;13.60;1.00;;;;;;4971911;28;20420;-55
2022/05/26 00:13:36;;;;;;;11.83;6.20;;;13.60;1.00;;;;;;4972050;28;20211;-54
2022/05/26 00:16:03;;;;;;;7.30;6.10;;;13.60;1.00;;;;;;4975025;28;20431;-53
2022/05/26 00:18:28;;;;;;;10.70;6.40;;;13.70;1.00;;;;;;4975779;28;20416;-54
2022/05/26 00:20:54;;;;;;;14.50;7.07;;;13.70;1.00;;;;;;4975476;28;21028;-54
2022/05/26 00:23:20;;;;;;;10.47;7.17;;;13.70;1.00;;;;;;4975532;28;20188;-53
2022/05/26 00:25:46;;;;;;;14.17;6.20;;;13.70;1.00;;;;;;4975664;28;20256;-54
2022/05/26 00:28:11;;;;;;;7.83;6.53;;;13.80;1.00;;;;;;4975522;28;20185;-54
2022/05/26 00:30:37;;;;;;;11.90;6.63;;;13.80;1.00;;;;;;4975486;28;20177;-54
2022/05/26 00:33:05;;;;;;;12.57;6.97;;;13.80;1.00;;;;;;4975360;28;20189;-55
2022/05/26 00:35:34;;;;;;;9.23;6.50;;;13.80;1.00;;;;;;4975340;28;20507;-54
2022/05/26 00:38:03;;;;;;;13.30;6.37;;;13.80;1.00;;;;;;4975223;28;20432;-53
2022/05/26 00:40:29;;;;;;;8.87;6.77;;;13.80;1.00;;;;;;4975251;28;20475;-53
2022/05/26 00:42:55;;;;;;;8.20;6.50;;;13.80;1.00;;;;;;4975334;28;20416;-54
2022/05/26 00:45:20;;;;;;;13.47;7.07;;;13.90;1.00;;;;;;4974027;28;20193;-53
2022/05/26 00:47:47;;;;;;;10.03;6.90;;;13.90;1.00;;;;;;4975157;28;20182;-53
2022/05/26 00:50:28;;;;;;;9.50;6.90;;;13.90;1.00;;;;;;4975037;28;20189;-53
2022/05/26 00:53:16;;;;;;;10.80;7.17;;;13.90;1.00;;;;;;4975335;28;20411;-53
2022/05/26 00:55:53;;;;;;;7.63;6.93;;;13.90;1.00;;;;;;4975250;28;20416;-55
2022/05/26 00:58:23;;;;;;;12.30;7.60;;;13.90;1.00;;;;;;4975014;28;20434;-53
2022/05/26 01:00:49;;;;;;;12.93;7.93;;;14.00;1.00;;;;;;4974877;28;20511;-53
2022/05/26 01:03:39;;;;;;;10.53;7.27;;;13.90;1.00;;;;;;4974844;28;20520;-54
2022/05/26 01:06:13;;;;;;;12.30;8.37;;;14.00;1.00;;;;;;4974544;28;20267;-53
2022/05/26 01:08:53;;;;;;;8.63;7.53;;;13.90;1.00;;;;;;4974664;28;20483;-53
2022/05/26 01:11:18;;;;;;;7.90;6.93;;;13.90;1.00;;;;;;4975126;28;20515;-53
2022/05/26 01:13:49;;;;;;;9.93;7.73;;;13.90;1.00;;;;;;4976326;28;20495;-53
2022/05/26 01:16:15;;;;;;;9.80;7.80;;;13.90;1.00;;;;;;4976161;28;20177;-53
2022/05/26 01:19:15;;;;;;;10.90;7.43;;;14.00;1.00;;;;;;4976184;28;20448;-53
2022/05/26 01:21:54;;;;;;;8.43;6.80;;;13.90;1.00;;;;;;4973831;28;20228;-54
2022/05/26 01:24:20;;;;;;;11.00;7.60;;;13.90;1.00;;;;;;4976243;28;20428;-54
2022/05/26 01:27:10;;;;;;;19.17;7.63;;;13.90;1.00;;;;;;4975114;28;20521;-53
2022/05/26 01:29:48;;;;;;;9.03;7.40;;;14.00;1.00;;;;;;4976046;28;20267;-54
2022/05/26 01:32:29;;;;;;;9.23;6.70;;;14.00;1.00;;;;;;4975874;28;20447;-53
2022/05/26 01:35:16;;;;;;;10.77;7.23;;;14.00;1.00;;;;;;4975808;28;20900;-53
2022/05/26 01:38:19;;;;;;;11.10;7.27;;;13.90;1.00;;;;;;4975829;28;20478;-53
2022/05/26 01:41:15;;;;;;;11.83;8.43;;;13.90;1.00;;;;;;4975774;28;20511;-53
2022/05/26 01:43:44;;;;;;;11.90;7.73;;;13.90;1.00;;;;;;4975759;28;21251;-53
2022/05/26 01:46:38;;;;;;;9.50;7.43;;;13.90;1.00;;;;;;4975740;28;20448;-53
2022/05/26 01:49:30;;;;;;;12.70;8.10;;;13.90;1.00;;;;;;4975546;28;20409;-54
2022/05/26 01:52:23;;;;;;;11.57;7.47;;;14.00;1.00;;;;;;4975478;28;20439;-53
2022/05/26 01:54:53;;;;;;;11.90;8.20;;;13.90;1.00;;;;;;4975401;28;20405;-53
2022/05/26 01:57:45;;;;;;;12.50;8.40;;;14.00;1.00;;;;;;4975447;28;20504;-53
2022/05/26 02:00:14;;;;;;;20.27;7.90;;;14.00;1.00;;;;;;4973977;28;20483;-53
2022/05/26 02:02:55;;;;;;;11.10;8.20;;;14.00;1.00;;;;;;4975216;28;20413;-53
2022/05/26 02:05:26;;;;;;;11.80;7.80;;;14.00;1.00;;;;;;4975211;28;20415;-53
2022/05/26 02:08:06;;;;;;;13.40;8.47;;;14.00;1.00;;;;;;4975277;28;20487;-53
2022/05/26 02:10:46;;;;;;;12.20;8.30;;;14.00;1.00;;;;;;4975187;28;20474;-53
2022/05/26 02:13:19;;;;;;;12.20;8.17;;;14.00;1.00;;;;;;4973824;28;20426;-53
2022/05/26 02:15:54;;;;;;;13.53;9.20;;;13.90;1.00;;;;;;4973631;28;20443;-53
2022/05/26 02:18:22;;;;;;;11.53;7.97;;;14.00;1.00;;;;;;4973408;28;20420;-53
2022/05/26 02:20:58;;;;;;;11.20;9.13;;;14.00;1.00;;;;;;4973425;28;20460;-53
2022/05/26 02:23:35;;;;;;;16.20;8.80;;;14.00;1.00;;;;;;4973599;28;20448;-53
2022/05/26 02:26:02;;;;;;;12.23;9.60;;;13.90;1.00;;;;;;4973450;28;20408;-53
2022/05/26 02:29:50;;;;;;;14.43;9.20;;;14.00;1.00;;;;;;4973498;28;20918;-53
2022/05/26 02:31:16;;;;;;;15.87;8.90;;;14.00;1.00;;;;;;4973173;28;20447;-54
2022/05/26 02:33:43;;;;;;;15.00;9.33;;;14.00;1.00;;;;;;4973131;28;20972;-53
2022/05/26 02:36:09;;;;;;;20.10;8.83;;;14.00;1.00;;;;;;4973375;28;20433;-55
2022/05/26 02:38:34;;;;;;;13.70;10.07;;;13.90;1.00;;;;;;4973002;28;20416;-53
2022/05/26 02:41:01;;;;;;;17.07;9.67;;;13.90;1.00;;;;;;4973089;28;20215;-55
2022/05/26 02:43:29;;;;;;;19.97;10.00;;;13.90;1.00;;;;;;4973086;28;20180;-54
2022/05/26 02:46:25;;;;;;;14.93;9.37;;;14.00;1.00;;;;;;4973020;28;20397;-53
2022/05/26 02:49:02;;;;;;;14.87;8.90;;;14.00;1.00;;;;;;4973011;28;20423;-55
2022/05/26 02:51:37;;;;;;;12.67;9.70;;;14.00;1.00;;;;;;4971652;28;20431;-53
2022/05/26 02:54:36;;;;;;;13.07;9.33;;;14.00;1.00;;;;;;4973074;28;20488;-53
2022/05/26 02:57:14;;;;;;;11.67;8.97;;;14.00;1.00;;;;;;4972782;28;20442;-54
2022/05/26 02:59:57;;;;;;;13.50;8.90;;;14.00;1.00;;;;;;4972678;28;20420;-53
2022/05/26 03:02:46;;;;;;;13.13;9.33;;;14.00;1.00;;;;;;4972850;28;20416;-53
2022/05/26 03:05:21;;;;;;;17.60;9.90;;;14.00;1.00;;;;;;4972695;28;20443;-55
2022/05/26 03:07:50;;;;;;;17.53;9.20;;;14.00;1.00;;;;;;4972494;28;20471;-54
2022/05/26 03:10:17;;;;;;;16.33;9.93;;;14.00;1.00;;;;;;4972855;28;20425;-54
2022/05/26 03:12:43;;;;;;;12.90;8.47;;;14.00;1.00;;;;;;4972566;28;20496;-53
2022/05/26 03:15:09;;;;;;;15.93;9.33;;;14.00;1.00;;;;;;4972374;28;20405;-55
2022/05/26 03:17:35;;;;;;;18.87;9.63;;;14.00;1.00;;;;;;4972578;28;20436;-53
2022/05/26 03:20:02;;;;;;;16.27;10.53;;;14.00;1.00;;;;;;4972404;28;21052;-53
2022/05/26 03:22:28;;;;;;;19.47;9.83;;;14.00;1.00;;;;;;4972802;28;20415;-53
2022/05/26 03:24:54;;;;;;;12.73;9.10;;;14.00;1.00;;;;;;4972401;28;20409;-53
2022/05/26 03:27:19;;;;;;;14.13;9.57;;;14.00;1.00;;;;;;4972438;28;20228;-53
2022/05/26 03:29:45;;;;;;;13.07;9.80;;;14.10;1.00;;;;;;4972255;28;20172;-54
2022/05/26 03:32:11;;;;;;;15.93;9.47;;;14.10;1.00;;;;;;4972446;28;20184;-53
2022/05/26 03:42:50;;;;;;;12.20;8.70;;;14.20;1.00;;;;;;4972493;28;21325;-54
2022/05/26 03:45:20;;;;;;;13.20;9.03;;;14.20;1.00;;;;;;4972326;28;20513;-53
2022/05/26 03:47:45;;;;;;;11.53;8.70;;;14.20;1.00;;;;;;4972281;28;20427;-53
2022/05/26 03:50:11;;;;;;;16.47;8.90;;;14.20;1.00;;;;;;4974361;28;20409;-54
2022/05/26 03:52:37;;;;;;;19.33;8.90;;;14.20;1.00;;;;;;4976319;28;20185;-53
2022/05/26 03:55:03;;;;;;;17.17;8.70;;;14.20;1.00;;;;;;4976211;28;20173;-53
2022/05/26 03:57:30;;;;;;;11.93;9.10;;;14.20;1.00;;;;;;4976061;28;20748;-54
2022/05/26 03:59:55;;;;;;;11.77;8.80;;;14.20;1.00;;;;;;4975857;28;20467;-53
2022/05/26 04:02:21;;;;;;;16.57;8.70;;;14.20;1.00;;;;;;4976162;28;20439;-53
2022/05/26 04:04:47;;;;;;;18.13;9.40;;;14.20;1.00;;;;;;4975928;28;20320;-53
2022/05/26 04:07:13;;;;;;;13.20;8.73;;;14.30;1.00;;;;;;4975891;28;20177;-53
2022/05/26 04:09:40;;;;;;;15.37;9.63;;;14.30;1.00;;;;;;4976003;28;20268;-54
2022/05/26 04:12:07;;;;;;;10.90;8.30;;;14.30;1.00;;;;;;4976104;28;20420;-53
2022/05/26 04:14:33;;;;;;;20.23;8.67;;;14.30;1.00;;;;;;4975592;28;20543;-53
2022/05/26 04:16:59;;;;;;;12.57;8.27;;;14.30;1.00;;;;;;4975911;28;20821;-53
2022/05/26 04:19:25;;;;;;;17.47;9.07;;;14.40;1.00;;;;;;4975747;28;20626;-53
2022/05/26 04:24:36;;;;;;;17.23;9.70;;;14.30;1.00;;;;;;4975770;28;20392;-54
2022/05/26 04:27:01;;;;;;;12.50;8.93;;;14.40;1.00;;;;;;4975477;28;20555;-53
2022/05/26 04:29:27;;;;;;;19.90;8.53;;;14.40;1.00;;;;;;4975424;28;20958;-53
2022/05/26 04:31:53;;;;;;;15.80;8.43;;;14.40;1.00;;;;;;4975434;28;20528;-53
2022/05/26 04:34:19;;;;;;;15.23;8.70;;;14.50;1.00;;;;;;4975528;28;20408;-53
2022/05/26 04:36:45;;;;;;;17.00;8.40;;;14.60;1.00;;;;;;4975572;28;20185;-53
2022/05/26 04:39:11;;;;;;;18.93;7.70;;;14.60;1.00;;;;;;4975560;28;20530;-54
2022/05/26 04:41:36;;;;;;;17.70;8.20;;;14.60;1.00;;;;;;4975408;28;20464;-54
2022/05/26 04:44:02;;;;;;;13.20;8.40;;;14.70;1.00;;;;;;4974019;28;20177;-53
2022/05/26 04:46:27;;;;;;;13.57;7.60;;;14.70;1.00;;;;;;4975094;28;20525;-54
2022/05/26 04:48:53;;;;;;;13.37;7.60;;;14.70;1.00;;;;;;4975226;28;20187;-53
2022/05/26 04:51:19;;;;;;;14.73;7.30;;;14.70;1.00;;;;;;4973783;28;20197;-53
2022/05/26 04:53:45;;;;;;;15.23;7.70;;;14.70;1.00;;;;;;4975131;28;20200;-54
2022/05/26 04:56:11;;;;;;;11.13;7.10;;;14.80;1.00;;;;;;4973805;28;20435;-53
2022/05/26 04:58:37;;;;;;;7.93;6.40;;;14.90;1.00;;;;;;4973615;28;20472;-53
2022/05/26 05:01:13;;;;;;;14.23;6.60;;;15.00;99.90;;;;;;4972439;28;20561;-53
2022/05/26 05:03:39;;;;;;;12.30;6.50;;;15.10;99.90;;;;;;4974745;28;20525;-54
2022/05/26 05:06:05;;;;;;;13.40;7.23;;;15.10;99.90;;;;;;4974623;28;20435;-53
2022/05/26 05:08:30;;;;;;;9.70;5.83;;;15.10;99.90;;;;;;4973443;28;20251;-53
2022/05/26 05:10:56;;;;;;;20.27;6.40;;;15.20;99.90;;;;;;4973546;28;20193;-53
2022/05/26 05:13:21;;;;;;;12.17;5.70;;;15.30;99.90;;;;;;4974731;28;20192;-53
2022/05/26 05:15:56;;;;;;;13.13;5.53;;;15.50;99.90;;;;;;4974732;28;20185;-54
2022/05/26 05:18:23;;;;;;;11.77;5.40;;;15.60;99.90;;;;;;4974634;28;20168;-54
2022/05/26 05:20:49;;;;;;;16.53;6.00;;;15.50;99.90;;;;;;4974547;28;20555;-53
2022/05/26 05:23:15;;;;;;;15.97;5.83;;;15.40;99.90;;;;;;4974934;28;20495;-53
2022/05/26 05:25:46;;;;;;;13.23;5.87;;;15.30;99.90;;;;;;4974538;28;20418;-52
2022/05/26 05:28:21;;;;;;;10.60;5.70;;;15.30;99.90;;;;;;4974913;28;20173;-53
2022/05/26 05:31:03;;;;;;;13.57;5.40;;;15.20;99.90;;;;;;4974546;28;20419;-52
2022/05/26 05:33:33;;;;;;;15.50;5.10;;;15.10;99.90;;;;;;4973025;28;20429;-56
2022/05/26 05:36:05;;;;;;;12.30;5.07;;;15.10;99.90;;;;;;4973417;28;20475;-53
2022/05/26 05:38:32;;;;;;;15.33;4.63;;;15.30;99.90;;;;;;4974248;28;20425;-53
2022/05/26 05:40:58;;;;;;;12.17;5.00;;;15.60;99.90;;;;;;4974110;28;20994;-52
2022/05/26 05:43:23;;;;;;;8.67;4.80;;;15.80;99.90;;;;;;4974171;28;20475;-53
2022/05/26 05:45:49;;;;;;;15.83;4.90;;;16.10;99.90;;;;;;4974202;28;20584;-53
2022/05/26 05:48:14;;;;;;;12.53;5.27;;;16.10;99.90;;;;;;4974198;28;20189;-53
2022/05/26 05:50:40;;;;;;;14.43;5.00;;;16.10;99.90;;;;;;4974310;28;20694;-53
2022/05/26 05:53:06;;;;;;;8.63;4.57;;;16.10;99.90;;;;;;4974052;28;20627;-53
2022/05/26 05:55:32;;;;;;;12.90;4.60;;;16.30;99.90;;;;;;4972580;28;20189;-54
2022/05/26 05:57:57;;;;;;;10.37;4.50;;;16.40;99.90;;;;;;4974297;28;20189;-53
2022/05/26 06:00:23;;;;;;;10.37;4.60;;;16.60;99.90;;;;;;4972692;28;20511;-53
2022/05/26 06:02:49;;;;;;;11.57;4.00;;;16.90;99.90;;;;;;4973914;28;20195;-54
2022/05/26 06:05:14;;;;;;;12.47;4.33;;;16.80;99.90;;;;;;4973734;28;20197;-54
2022/05/26 06:07:41;;;;;;;8.20;3.63;;;16.90;99.90;;;;;;4973687;28;20328;-53
2022/05/26 06:10:10;;;;;;;12.50;4.00;;;17.00;99.90;;;;;;4972281;28;20188;-53
2022/05/26 06:12:35;;;;;;;11.03;3.73;;;17.20;99.90;;;;;;4973229;28;20420;-53
2022/05/26 06:15:01;;;;;;;10.53;3.87;;;17.20;99.90;;;;;;4973699;28;20752;-52
2022/05/26 06:17:27;;;;;;;7.37;3.70;;;17.10;99.90;;;;;;4973519;28;20192;-53
2022/05/26 06:19:53;;;;;;;10.33;3.90;;;17.10;99.90;;;;;;4973607;28;20286;-53
2022/05/26 06:22:20;;;;;;;8.93;3.87;;;17.20;99.90;;;;;;4973557;28;20268;-53
2022/05/26 06:24:47;;;;;;;7.23;2.90;;;17.40;99.90;;;;;;4973112;28;20191;-53
2022/05/26 06:30:01;;;;;;;13.63;4.03;;;17.10;99.90;;;;;;4973502;28;20458;-53
2022/05/26 06:38:00;;;;;;;11.90;2.90;;;17.20;99.90;;;;;;4973688;28;20470;-53
2022/05/26 06:40:28;;;;;;;12.27;4.00;;;17.60;99.90;;;;;;4973119;28;21057;-54
2022/05/26 06:42:55;;;;;;;7.37;3.17;;;17.90;99.90;;;;;;4973054;28;20495;-54
2022/05/26 06:45:22;;;;;;;12.53;3.87;;;17.70;99.90;;;;;;4973158;28;20428;-55
2022/05/26 06:47:48;;;;;;;10.17;3.03;;;17.50;99.90;;;;;;4971883;28;20413;-53
2022/05/26 06:50:14;;;;;;;9.13;3.83;;;17.20;99.90;;;;;;4972723;28;20433;-53
2022/05/26 06:52:39;;;;;;;7.03;3.30;;;17.10;99.90;;;;;;4972908;28;20260;-53
2022/05/26 06:55:06;;;;;;;9.03;3.60;;;16.60;99.90;;;;;;4971521;28;20523;-53
2022/05/26 06:57:32;;;;;;;9.33;3.63;;;16.50;99.90;;;;;;4972809;28;20326;-53
2022/05/26 06:59:58;;;;;;;11.67;3.60;;;16.40;99.90;;;;;;4972739;28;20500;-53
2022/05/26 07:02:24;;;;;;;12.37;3.57;;;16.30;99.90;;;;;;4972770;28;20264;-53
2022/05/26 07:04:50;;;;;;;10.83;3.37;;;16.20;99.90;;;;;;4972917;28;20177;-55
2022/05/26 07:07:16;;;;;;;7.53;2.70;;;16.30;99.90;;;;;;4972415;28;20444;-54
2022/05/26 07:09:42;;;;;;;7.70;2.80;;;16.70;99.90;;;;;;4972995;28;20404;-53
2022/05/26 07:12:08;;;;;;;8.13;2.83;;;17.30;99.90;;;;;;4972856;28;20181;-55
2022/05/26 07:14:34;;;;;;;13.10;2.90;;;17.50;99.90;;;;;;4972633;28;20417;-54
2022/05/26 07:17:00;;;;;;;12.93;2.93;;;17.90;99.90;;;;;;4972637;28;20760;-54
2022/05/26 07:19:26;;;;;;;7.10;2.40;;;17.70;99.90;;;;;;4972736;28;20263;-54
2022/05/26 07:21:52;;;;;;;7.97;2.23;;;17.70;99.90;;;;;;4972406;28;21038;-53
2022/05/26 07:24:19;;;;;;;10.80;2.40;;;17.40;99.90;;;;;;4971674;28;20177;-54
2022/05/26 07:26:46;;;;;;;10.50;2.83;;;17.40;99.90;;;;;;4972363;28;20666;-54
2022/05/26 07:29:12;;;;;;;9.63;2.20;;;17.40;99.90;;;;;;4972382;28;20428;-54
2022/05/26 07:31:38;;;;;;;8.20;2.10;;;17.10;99.90;;;;;;4972254;28;20456;-52
2022/05/26 07:34:03;;;;;;;5.63;1.93;;;17.10;99.90;;;;;;4972328;28;20559;-54
2022/05/26 07:42:03;;;;;;;7.27;1.83;;;18.00;99.90;;;;;;4972442;28;20463;-54
2022/05/26 07:44:32;;;;;;;4.93;1.37;;;18.10;99.90;;;;;;4970996;28;21025;-53
2022/05/26 07:46:57;;;;;;;8.37;1.93;;;18.10;99.90;;;;;;4972304;28;20839;-53
2022/05/26 07:49:23;;;;;;;5.13;1.50;;;18.00;99.90;;;;;;4972179;28;20447;-54
2022/05/26 07:51:49;;;;;;;3.60;1.57;;;18.10;99.90;;;;;;4972148;28;20185;-54
2022/05/26 07:54:15;;;;;;;4.23;1.17;;;18.40;99.90;;;;;;4972071;28;20424;-53
2022/05/26 07:56:40;;;;;;;7.43;1.30;;;18.50;99.90;;;;;;4970809;28;20172;-54
2022/05/26 07:59:07;;;;;;;4.97;1.43;;;18.60;99.90;;;;;;4971912;28;20197;-54
2022/05/26 08:01:34;;;;;;;10.63;1.37;;;18.90;99.90;;;;;;4972023;28;20232;-55
2022/05/26 08:04:00;;;;;;;3.37;1.40;;;19.10;99.90;;;;;;4972101;28;20760;-53
2022/05/26 08:06:26;;;;;;;3.07;1.10;;;19.10;99.90;;;;;;4972071;28;20435;-53
2022/05/26 08:08:51;;;;;;;4.07;1.10;;;18.90;99.90;;;;;;4972085;28;20858;-54
2022/05/26 08:11:17;;;;;;;5.60;1.00;;;18.90;99.90;;;;;;4972221;28;21028;-55
2022/05/26 08:13:44;;;;;;;7.70;1.30;;;19.20;99.90;;;;;;4972028;28;20165;-53
2022/05/26 08:16:10;;;;;;;3.70;1.00;;;19.40;99.90;;;;;;4970730;28;20986;-54
2022/05/26 08:18:35;;;;;;;2.43;0.80;;;19.50;99.90;;;;;;4972005;28;20404;-54
2022/05/26 08:21:09;;;;;;;7.37;1.20;;;19.40;99.90;;;;;;4971992;28;20239;-54
2022/05/26 08:23:35;;;;;;;3.90;1.20;;;19.40;99.90;;;;;;4971864;28;20185;-56
2022/05/26 08:26:01;;;;;;;2.87;1.10;;;19.50;99.90;;;;;;4972384;28;20426;-54
2022/05/26 08:28:26;;;;;;;3.47;1.40;;;19.20;99.90;;;;;;4972170;28;20424;-54
2022/05/26 08:30:51;;;;;;;6.27;1.50;;;19.10;99.90;;;;;;4971897;28;20511;-57
2022/05/26 08:33:17;;;;;;;4.10;1.20;;;19.20;99.90;;;;;;4971923;28;20177;-54
2022/05/26 08:35:43;;;;;;;3.90;1.00;;;19.20;99.90;;;;;;4972575;28;20633;-54
2022/05/26 08:38:09;;;;;;;2.90;1.10;;;19.00;99.90;;;;;;4975434;28;20193;-54
2022/05/26 08:40:43;;;;;;;5.20;1.07;;;18.70;99.90;;;;;;4975342;28;20193;-54
2022/05/26 08:43:16;;;;;;;2.07;1.00;;;18.70;99.90;;;;;;4975532;28;20412;-54
2022/05/26 08:45:46;;;;;;;4.17;1.47;;;19.00;99.90;;;;;;4975252;28;20420;-54
2022/05/26 08:48:16;;;;;;;5.63;1.07;;;19.40;99.90;;;;;;4975181;28;20452;-54
2022/05/26 08:50:41;;;;;;;3.63;1.10;;;19.40;99.90;;;;;;4975245;28;20526;-53
2022/05/26 08:53:11;;;;;;;5.03;1.23;;;19.30;99.90;;;;;;4975103;28;20515;-53
2022/05/26 08:55:43;;;;;;;4.50;1.20;;;19.10;99.90;;;;;;4975205;28;20494;-55
2022/05/26 08:58:27;;;;;;;5.00;1.30;;;18.90;99.90;;;;;;4975070;28;20902;-54
2022/05/26 09:00:54;;;;;;;8.30;1.43;;;19.20;99.90;;;;;;4974841;28;20799;-53
2022/05/26 09:03:28;;;;;;;2.57;1.07;;;19.30;99.90;;;;;;4974761;28;20526;-53
2022/05/26 09:06:08;;;;;;;8.53;1.30;;;19.50;99.90;;;;;;4974989;28;20416;-54
2022/05/26 09:14:19;;;;;;;5.80;1.17;;;20.10;99.90;;;;;;4975252;28;20761;-54
2022/05/26 09:16:45;;;;;;;4.40;0.97;;;20.00;99.90;;;;;;4974859;28;20409;-55
2022/05/26 09:19:16;;;;;;;10.53;1.80;;;20.50;99.90;;;;;;4974706;28;20511;-54
2022/05/26 09:21:43;;;;;;;6.13;1.20;;;21.20;99.90;;;;;;4974578;28;20464;-54
2022/05/26 09:24:29;;;;;;;2.97;1.00;;;21.60;99.90;;;;;;4974715;28;20443;-54
2022/05/26 09:27:00;;;;;;;2.20;0.90;;;21.30;99.90;;;;;;4974991;28;20538;-53
2022/05/26 09:29:34;;;;;;;3.47;0.90;;;21.40;99.90;;;;;;4974670;28;20747;-53
2022/05/26 09:32:02;;;;;;;3.27;1.00;;;21.20;99.90;;;;;;4974702;28;20415;-53
2022/05/26 09:34:32;;;;;;;5.80;1.57;;;20.70;99.90;;;;;;4974511;28;20428;-55
2022/05/26 09:37:07;;;;;;;5.33;1.23;;;20.20;99.90;;;;;;4974636;28;20424;-54
2022/05/26 09:39:42;;;;;;;3.23;1.13;;;20.40;99.90;;;;;;4974850;28;20419;-53
2022/05/26 09:42:14;;;;;;;3.83;1.30;;;21.10;99.90;;;;;;4974354;28;20909;-54
2022/05/26 09:44:52;;;;;;;3.53;1.13;;;21.70;99.90;;;;;;4974411;28;20428;-54
2022/05/26 09:47:28;;;;;;;7.03;1.30;;;21.70;99.90;;;;;;4973669;28;20937;-54
2022/05/26 09:49:56;;;;;;;4.50;1.10;;;22.10;99.90;;;;;;4972839;28;20480;-54
2022/05/26 09:52:26;;;;;;;3.17;1.23;;;22.10;99.90;;;;;;4974128;28;20983;-54
2022/05/26 09:55:07;;;;;;;5.13;1.23;;;22.30;99.90;;;;;;4974229;28;20428;-55
2022/05/26 09:57:33;;;;;;;6.30;1.37;;;21.10;99.90;;;;;;4972802;28;20937;-54
2022/05/26 09:59:59;;;;;;;7.10;1.20;;;20.40;99.90;;;;;;4974076;28;20910;-54
2022/05/26 10:02:35;;;;;;;7.43;1.53;;;19.80;99.90;;;;;;4973799;28;20412;-54
2022/05/26 10:05:24;;;;;;;5.00;1.40;;;19.80;99.90;;;;;;4973854;28;20416;-55
2022/05/26 10:08:05;;;;;;;5.53;1.30;;;20.40;99.90;;;;;;4973743;28;20527;-54
2022/05/26 10:10:41;;;;;;;9.60;1.53;;;19.90;99.90;;;;;;4973825;28;20449;-54
2022/05/26 10:13:38;;;;;;;2.40;1.10;;;19.60;99.90;;;;;;4974124;28;20397;-49
2022/05/26 10:16:19;;;;;;;5.87;1.30;;;19.80;99.90;;;;;;4973570;28;20413;-50
2022/05/26 10:19:06;;;;;;;3.17;1.30;;;20.00;99.90;;;;;;4973791;28;20432;-49
2022/05/26 10:21:59;;;;;;;9.60;1.07;;;19.70;99.90;;;;;;4973748;28;20837;-49
2022/05/26 10:25:02;;;;;;;4.07;1.13;;;19.90;99.90;;;;;;4973780;28;20824;-50
2022/05/26 10:28:01;;;;;;;3.80;1.30;;;19.80;99.90;;;;;;4973583;28;20419;-49
2022/05/26 10:30:52;;;;;;;5.30;1.30;;;20.40;99.90;;;;;;4973406;28;20842;-49
2022/05/26 10:33:46;;;;;;;5.50;1.70;;;21.40;99.90;;;;;;4973398;28;20459;-50
2022/05/26 10:36:53;;;;;;;4.33;1.17;;;21.90;99.90;;;;;;4973521;28;20411;-50
2022/05/26 10:39:38;;;;;;;3.93;1.13;;;20.90;99.90;;;;;;4973351;28;20416;-50
2022/05/26 10:42:24;;;;;;;8.63;1.27;;;20.40;99.90;;;;;;4973245;28;20474;-50
2022/05/26 10:45:12;;;;;;;7.80;0.90;;;20.80;99.90;;;;;;4973224;28;20431;-51
2022/05/26 10:47:47;;;;;;;2.27;1.00;;;21.00;99.90;;;;;;4973201;28;20734;-50
2022/05/26 10:50:19;;;;;;;4.50;1.10;;;21.60;99.90;;;;;;4973301;28;20432;-50
2022/05/26 10:53:34;;;;;;;6.33;1.40;;;22.60;99.90;;;;;;4973475;28;20490;-50
2022/05/26 10:56:31;;;;;;;2.73;1.13;;;23.20;99.90;;;;;;4942448;28;20432;-50
2022/05/26 10:59:16;;;;;;;3.10;1.30;;;22.90;99.90;;;;;;4972121;28;20551;-50
2022/05/26 11:01:48;;;;;;;4.57;1.83;;;23.60;99.90;;;;;;4972788;28;20456;-50
2022/05/26 11:04:32;;;;;;;6.93;1.20;;;23.30;99.90;;;;;;4973038;28;20408;-51
2022/05/26 11:07:05;;;;;;;3.07;1.17;;;22.80;99.90;;;;;;4973008;28;20774;-50
2022/05/26 11:09:42;;;;;;;5.93;1.07;;;22.10;99.90;;;;;;4971603;28;20448;-50
2022/05/26 11:12:15;;;;;;;4.17;1.10;;;21.30;99.90;;;;;;4971651;28;20427;-50
2022/05/26 11:17:56;;;;;;;1.83;0.90;;;20.00;99.90;;;;;;4973188;28;20487;-50
2022/05/26 11:20:26;;;;;;;2.47;1.20;;;19.60;99.90;;;;;;4972783;28;20452;-50
2022/05/26 11:22:52;;;;;;;4.30;1.10;;;19.20;99.90;;;;;;4973328;28;20423;-50
2022/05/26 11:25:28;;;;;;;3.10;1.10;;;19.40;99.90;;;;;;4972744;28;20421;-49
2022/05/26 11:28:19;;;;;;;6.63;1.07;;;19.80;99.90;;;;;;4973237;28;20993;-50
2022/05/26 11:37:20;;;;;;;5.37;1.17;;;20.30;99.90;;;;;;4972640;28;20840;-50
2022/05/26 11:39:50;;;;;;;3.50;1.40;;;19.20;99.90;;;;;;4972305;28;20397;-48
2022/05/26 11:42:25;;;;;;;1.90;1.00;;;18.60;99.90;;;;;;4972338;28;20413;-50
2022/05/26 11:45:08;;;;;;;5.90;1.00;;;18.20;99.90;;;;;;4972154;28;20431;-50
2022/05/26 11:47:46;;;;;;;5.00;1.33;;;17.90;99.90;;;;;;4972192;28;20428;-50
2022/05/26 11:50:47;;;;;;;5.73;1.50;;;17.80;99.90;;;;;;4970934;28;20443;-50
2022/05/26 11:53:32;;;;;;;1.93;1.10;;;17.60;99.90;;;;;;4971108;28;20444;-49
2022/05/26 11:56:24;;;;;;;5.60;1.57;;;17.40;99.90;;;;;;4971973;28;20442;-54
2022/05/26 11:59:27;;;;;;;3.33;1.17;;;17.20;99.90;;;;;;4971486;28;20985;-54
2022/05/26 12:02:01;;;;;;;5.77;1.30;;;17.20;99.90;;;;;;4970759;28;20468;-52
2022/05/26 12:04:30;;;;;;;6.00;1.83;;;17.10;99.90;;;;;;4972156;28;20469;-53
2022/05/26 12:07:17;;;;;;;7.83;1.40;;;17.20;99.90;;;;;;4972062;28;20899;-55
2022/05/26 12:09:50;;;;;;;6.53;1.63;;;17.10;99.90;;;;;;4972073;28;20432;-55
2022/05/26 12:12:16;;;;;;;8.53;1.30;;;17.20;99.90;;;;;;4975695;28;20903;-54
2022/05/26 12:15:06;;;;;;;6.27;1.63;;;17.20;99.90;;;;;;4975861;28;20416;-55
2022/05/26 12:17:37;;;;;;;3.97;1.30;;;17.10;99.90;;;;;;4975949;28;20221;-53
2022/05/26 12:20:24;;;;;;;7.43;1.30;;;17.20;99.90;;;;;;4975641;28;20405;-54
2022/05/26 12:22:49;;;;;;;6.63;1.40;;;17.60;99.90;;;;;;4975550;28;20424;-55
2022/05/26 12:25:36;;;;;;;8.77;1.37;;;17.70;99.90;;;;;;4975560;28;20455;-54
2022/05/26 12:28:04;;;;;;;3.00;1.50;;;17.70;99.90;;;;;;4974178;28;20271;-54
2022/05/26 12:30:45;;;;;;;4.90;1.70;;;17.60;99.90;;;;;;4975772;28;20547;-54
2022/05/26 12:33:19;;;;;;;6.50;1.70;;;17.40;99.90;;;;;;4975757;28;21200;-54
2022/05/26 12:35:48;;;;;;;5.23;1.60;;;17.30;99.90;;;;;;4975509;28;20419;-54
2022/05/26 12:38:46;;;;;;;7.00;1.80;;;17.10;99.90;;;;;;4975642;28;20424;-53
2022/05/26 12:41:53;;;;;;;4.30;1.37;;;17.00;99.90;;;;;;4975333;28;21071;-54
2022/05/26 12:44:37;;;;;;;4.70;1.40;;;16.90;99.90;;;;;;4975836;28;20408;-54
2022/05/26 12:47:40;;;;;;;3.10;1.50;;;17.00;99.90;;;;;;4975356;28;20507;-54
2022/05/26 12:50:14;;;;;;;8.17;2.00;;;17.40;99.90;;;;;;4975212;28;20412;-54
2022/05/26 12:52:42;;;;;;;3.40;1.57;;;17.60;99.90;;;;;;4975006;28;20408;-54
2022/05/26 12:55:35;;;;;;;2.77;1.57;;;17.70;99.90;;;;;;4975224;28;20421;-53
2022/05/26 12:58:03;;;;;;;4.30;1.60;;;18.00;99.90;;;;;;4975545;28;20415;-54
2022/05/26 13:00:35;;;;;;;7.83;2.10;;;18.30;99.90;;;;;;4975163;28;20486;-53
2022/05/26 13:03:30;;;;;;;3.03;1.53;;;18.00;99.90;;;;;;4975220;28;20442;-54
2022/05/26 13:06:07;;;;;;;7.77;1.80;;;17.80;99.90;;;;;;4974938;28;20431;-54
2022/05/26 13:08:54;;;;;;;5.73;1.70;;;17.60;99.90;;;;;;4974868;28;20468;-55
2022/05/26 13:11:25;;;;;;;3.83;1.50;;;17.50;99.90;;;;;;4974697;28;20432;-55
2022/05/26 13:13:56;;;;;;;6.53;1.17;;;17.30;99.90;;;;;;4976505;28;20420;-54
2022/05/26 13:16:26;;;;;;;5.83;1.47;;;17.10;99.90;;;;;;4976409;28;20438;-54
2022/05/26 13:18:54;;;;;;;4.70;1.30;;;17.00;99.90;;;;;;4976325;28;20899;-53
2022/05/26 13:21:23;;;;;;;4.03;1.50;;;16.90;99.90;;;;;;4975851;28;20501;-55
2022/05/26 13:23:50;;;;;;;8.80;1.60;;;16.80;99.90;;;;;;4975586;28;20429;-54
2022/05/26 13:26:17;;;;;;;4.03;1.50;;;16.80;99.90;;;;;;4976111;28;20549;-53
2022/05/26 13:28:50;;;;;;;6.43;1.60;;;16.90;99.90;;;;;;4976062;28;20444;-54
2022/05/26 13:34:04;;;;;;;9.47;1.77;;;17.50;99.90;;;;;;4976154;28;20478;-54
2022/05/26 13:36:47;;;;;;;3.70;1.50;;;17.60;99.90;;;;;;4974436;28;20818;-54
2022/05/26 13:39:16;;;;;;;6.47;1.43;;;17.60;99.90;;;;;;4976012;28;20428;-53
2022/05/26 13:41:44;;;;;;;3.20;1.43;;;17.40;99.90;;;;;;4975774;28;20478;-53
2022/05/26 13:44:15;;;;;;;6.33;1.53;;;17.10;99.90;;;;;;4975812;28;20436;-54
2022/05/26 13:46:45;;;;;;;5.20;1.37;;;17.00;99.90;;;;;;4975812;28;20412;-54
2022/05/26 13:49:16;;;;;;;2.60;1.23;;;16.90;99.90;;;;;;4975811;28;20427;-54
2022/05/26 13:51:46;;;;;;;6.97;1.63;;;17.00;99.90;;;;;;4975735;28;21002;-54
2022/05/26 13:54:17;;;;;;;10.80;1.70;;;17.10;99.90;;;;;;4975856;28;20397;-54
2022/05/26 13:56:47;;;;;;;3.57;1.60;;;17.60;99.90;;;;;;4975546;28;20417;-55